Time;durP1;ratioP1;P1;durP2;ratioP2;P2;SDS_P1;SDS_P2;PMS_P1;PMS_P2;Temp;Humidity;BMP_temperature;BMP_pressure;BME280_temperature;BME280_humidity;BME280_pressure;Samples;Min_cycle;Max_cycle;Signal;HPM_P1;HPM_P2
2023/05/02 00:00:09;;;;;;;18.60;10.68;;;14.80;67.70;;;;;;5063664;28;20020;-63
2023/05/02 00:02:35;;;;;;;16.30;10.32;;;14.80;67.70;;;;;;5089401;28;20342;-63
2023/05/02 00:05:01;;;;;;;20.50;10.60;;;14.80;67.80;;;;;;5069424;28;20115;-63
2023/05/02 00:07:27;;;;;;;17.02;10.10;;;14.80;67.80;;;;;;5063573;28;20128;-63
2023/05/02 00:09:53;;;;;;;17.60;9.65;;;14.80;67.90;;;;;;5069601;28;20032;-63
2023/05/02 00:12:19;;;;;;;20.38;11.60;;;14.80;68.10;;;;;;5067482;28;20024;-63
2023/05/02 00:14:45;;;;;;;15.07;9.32;;;14.70;68.00;;;;;;5073072;28;20415;-63
2023/05/02 00:17:18;;;;;;;16.92;9.20;;;14.80;68.10;;;;;;5072900;28;20020;-63
2023/05/02 00:19:44;;;;;;;15.68;9.13;;;14.80;67.90;;;;;;5065555;28;20135;-63
2023/05/02 00:22:10;;;;;;;13.60;8.77;;;14.80;67.80;;;;;;5065211;28;20357;-63
2023/05/02 00:24:36;;;;;;;20.40;9.55;;;14.80;67.80;;;;;;5066404;28;20484;-63
2023/05/02 00:27:01;;;;;;;17.25;9.18;;;14.80;67.70;;;;;;5071261;28;20039;-63
2023/05/02 00:29:27;;;;;;;16.25;9.05;;;14.80;67.70;;;;;;5070290;28;20042;-63
2023/05/02 00:31:53;;;;;;;13.77;8.55;;;14.80;67.70;;;;;;5071737;28;20031;-63
2023/05/02 00:34:18;;;;;;;14.10;7.88;;;14.80;67.70;;;;;;5071970;28;20071;-63
2023/05/02 00:36:44;;;;;;;12.95;7.63;;;14.80;67.70;;;;;;5071998;28;20069;-63
2023/05/02 00:39:10;;;;;;;11.48;6.85;;;14.70;67.60;;;;;;5071976;28;20047;-63
2023/05/02 00:41:35;;;;;;;11.88;6.68;;;14.70;67.60;;;;;;5069217;28;20064;-64
2023/05/02 00:44:01;;;;;;;13.38;6.93;;;14.60;67.50;;;;;;5066111;28;20039;-63
2023/05/02 00:46:27;;;;;;;13.75;7.30;;;14.60;67.40;;;;;;5069319;28;20048;-63
2023/05/02 00:48:53;;;;;;;11.57;7.28;;;14.60;67.50;;;;;;5068452;28;20403;-63
2023/05/02 00:51:19;;;;;;;13.25;6.93;;;14.50;67.50;;;;;;5067647;28;20048;-63
2023/05/02 00:53:45;;;;;;;15.18;7.43;;;14.50;67.50;;;;;;5071465;28;20523;-63
2023/05/02 00:56:11;;;;;;;12.45;6.53;;;14.50;67.50;;;;;;5071847;28;20547;-63
2023/05/02 00:58:40;;;;;;;16.40;7.55;;;14.50;67.50;;;;;;5070416;28;20093;-63
2023/05/02 01:01:25;;;;;;;14.43;7.65;;;14.60;67.50;;;;;;5071706;28;20031;-63
2023/05/02 01:04:22;;;;;;;14.90;7.90;;;14.50;67.40;;;;;;5059800;28;20048;-63
2023/05/02 01:07:15;;;;;;;13.45;7.20;;;14.60;67.50;;;;;;5061368;28;20021;-63
2023/05/02 01:09:56;;;;;;;14.82;7.85;;;14.60;67.50;;;;;;5060741;28;20446;-63
2023/05/02 01:12:41;;;;;;;13.43;7.85;;;14.60;67.50;;;;;;5067942;28;20028;-63
2023/05/02 01:15:11;;;;;;;13.40;7.50;;;14.50;67.50;;;;;;5071599;28;20596;-63
2023/05/02 01:17:37;;;;;;;13.15;7.53;;;14.50;67.60;;;;;;5058093;28;20053;-63
2023/05/02 01:20:10;;;;;;;14.45;8.32;;;14.50;67.70;;;;;;5061393;28;20086;-63
2023/05/02 01:22:39;;;;;;;15.23;8.90;;;14.50;67.90;;;;;;5072999;28;20032;-63
2023/05/02 01:25:17;;;;;;;12.88;7.95;;;14.50;67.90;;;;;;5068660;28;20056;-63
2023/05/02 01:28:17;;;;;;;14.82;7.80;;;14.50;67.90;;;;;;5065316;28;20039;-63
2023/05/02 01:30:45;;;;;;;15.88;7.85;;;14.50;67.90;;;;;;5070239;28;20505;-63
2023/05/02 01:33:14;;;;;;;13.73;7.75;;;14.50;67.90;;;;;;5067103;28;20048;-63
2023/05/02 01:35:42;;;;;;;14.25;7.88;;;14.50;68.00;;;;;;5070681;28;20395;-63
2023/05/02 01:38:13;;;;;;;15.20;9.10;;;14.50;68.10;;;;;;5073899;28;20036;-63
2023/05/02 01:40:41;;;;;;;15.18;8.73;;;14.50;68.20;;;;;;5066043;28;20056;-63
2023/05/02 01:43:08;;;;;;;15.25;8.52;;;14.50;68.40;;;;;;5064935;28;20028;-63
2023/05/02 01:45:36;;;;;;;15.93;8.35;;;14.50;68.50;;;;;;5074994;28;20117;-63
2023/05/02 01:48:05;;;;;;;17.45;9.10;;;14.50;68.70;;;;;;5064005;28;20029;-63
2023/05/02 01:50:31;;;;;;;14.75;8.77;;;14.50;68.90;;;;;;5069510;28;20024;-64
2023/05/02 01:52:57;;;;;;;19.95;9.02;;;14.50;69.00;;;;;;5064817;28;20056;-63
2023/05/02 01:55:25;;;;;;;14.70;8.63;;;14.50;69.10;;;;;;5066729;28;20055;-63
2023/05/02 01:57:53;;;;;;;15.02;7.95;;;14.50;69.30;;;;;;5074230;28;20356;-63
2023/05/02 02:00:20;;;;;;;14.18;8.38;;;14.40;69.40;;;;;;5074748;28;20539;-63
2023/05/02 02:02:47;;;;;;;15.98;8.27;;;14.50;69.60;;;;;;5068767;28;20087;-63
2023/05/02 02:05:14;;;;;;;13.30;8.20;;;14.40;69.60;;;;;;5066287;28;20535;-63
2023/05/02 02:07:42;;;;;;;16.95;8.43;;;14.40;69.80;;;;;;5071293;28;20361;-63
2023/05/02 02:10:08;;;;;;;15.77;8.18;;;14.40;69.90;;;;;;5090122;28;20040;-63
2023/05/02 02:12:52;;;;;;;12.23;7.00;;;14.40;70.00;;;;;;5073492;28;20388;-63
2023/05/02 02:15:27;;;;;;;14.57;6.95;;;14.40;70.10;;;;;;5075377;28;20025;-63
2023/05/02 02:18:04;;;;;;;15.55;6.97;;;14.40;70.10;;;;;;5059785;28;20033;-63
2023/05/02 02:20:31;;;;;;;12.98;6.88;;;14.40;70.20;;;;;;5068723;28;20056;-63
2023/05/02 02:23:00;;;;;;;12.77;5.97;;;14.40;70.30;;;;;;5071070;28;20029;-63
2023/05/02 02:25:26;;;;;;;13.25;6.63;;;14.40;70.50;;;;;;5067785;28;20461;-63
2023/05/02 02:27:53;;;;;;;10.90;5.70;;;14.40;70.50;;;;;;5074381;28;20043;-63
2023/05/02 02:30:19;;;;;;;10.57;4.75;;;14.40;70.40;;;;;;5072887;28;20365;-63
2023/05/02 02:32:45;;;;;;;11.07;4.60;;;14.40;70.40;;;;;;5069900;28;20103;-63
2023/05/02 02:35:11;;;;;;;11.27;4.03;;;14.40;70.30;;;;;;5062679;28;20024;-63
2023/05/02 02:37:45;;;;;;;7.43;3.42;;;14.40;70.30;;;;;;5075890;28;20476;-63
2023/05/02 02:40:30;;;;;;;7.60;3.05;;;14.30;70.30;;;;;;5062815;28;20044;-63
2023/05/02 02:43:17;;;;;;;5.63;2.63;;;14.30;70.20;;;;;;5072941;28;20060;-63
2023/05/02 02:45:56;;;;;;;11.40;2.80;;;14.30;70.10;;;;;;5069016;28;20058;-63
2023/05/02 02:48:42;;;;;;;9.32;2.50;;;14.20;69.80;;;;;;5070275;28;20029;-63
2023/05/02 02:51:32;;;;;;;8.82;2.38;;;14.20;69.50;;;;;;5067550;28;20082;-63
2023/05/02 02:54:26;;;;;;;10.60;2.40;;;14.20;69.30;;;;;;5012548;28;20401;-63
2023/05/02 02:57:02;;;;;;;6.68;2.65;;;14.20;69.20;;;;;;5052361;28;20044;-63
2023/05/02 02:59:40;;;;;;;8.63;2.85;;;14.10;69.20;;;;;;5054077;28;20037;-63
2023/05/02 03:02:13;;;;;;;8.02;2.55;;;14.10;69.20;;;;;;5053486;28;20025;-63
2023/05/02 03:04:44;;;;;;;8.27;2.80;;;14.10;69.10;;;;;;5053529;28;20112;-63
2023/05/02 03:07:10;;;;;;;8.68;2.60;;;14.10;69.00;;;;;;5047373;28;20028;-63
2023/05/02 03:09:42;;;;;;;8.32;2.20;;;14.10;69.00;;;;;;5045893;28;20375;-63
2023/05/02 03:12:11;;;;;;;11.55;2.40;;;14.00;68.90;;;;;;5051253;28;20017;-63
2023/05/02 03:14:39;;;;;;;8.80;2.70;;;14.00;68.90;;;;;;5053201;28;20445;-62
2023/05/02 03:17:07;;;;;;;9.40;2.60;;;14.00;68.90;;;;;;5052380;28;20060;-63
2023/05/02 03:19:33;;;;;;;9.45;2.47;;;14.00;68.90;;;;;;5053864;28;20370;-63
2023/05/02 03:22:00;;;;;;;7.78;2.30;;;14.00;68.90;;;;;;5050592;28;20480;-63
2023/05/02 03:24:28;;;;;;;5.97;2.25;;;14.00;68.80;;;;;;5053031;28;20072;-63
2023/05/02 03:26:55;;;;;;;7.18;2.55;;;14.00;68.60;;;;;;5051489;28;20032;-63
2023/05/02 03:29:25;;;;;;;11.02;2.78;;;14.00;68.50;;;;;;5052548;28;20130;-63
2023/05/02 03:31:51;;;;;;;7.35;2.40;;;14.00;68.40;;;;;;5052980;28;20025;-63
2023/05/02 03:34:21;;;;;;;6.53;1.75;;;14.00;68.40;;;;;;5035657;28;20143;-63
2023/05/02 03:36:47;;;;;;;8.93;2.50;;;14.00;68.30;;;;;;5036599;28;20021;-63
2023/05/02 03:39:13;;;;;;;8.32;2.20;;;14.00;68.20;;;;;;5052440;28;20032;-63
2023/05/02 03:41:41;;;;;;;7.93;2.25;;;13.90;68.20;;;;;;5053111;28;20025;-62
2023/05/02 03:44:08;;;;;;;10.25;2.90;;;13.90;68.20;;;;;;5045635;28;20033;-62
2023/05/02 03:46:35;;;;;;;7.85;2.10;;;13.80;68.10;;;;;;5044700;28;20107;-62
2023/05/02 03:49:05;;;;;;;5.50;2.10;;;13.80;68.10;;;;;;5057756;28;20021;-62
2023/05/02 03:51:32;;;;;;;9.18;2.17;;;13.70;68.10;;;;;;5050554;28;20048;-63
2023/05/02 03:54:01;;;;;;;7.00;2.10;;;13.70;68.10;;;;;;5062276;28;20044;-63
2023/05/02 03:56:27;;;;;;;9.35;2.22;;;13.70;68.10;;;;;;5067694;28;20035;-63
2023/05/02 03:59:06;;;;;;;6.78;2.60;;;13.70;68.00;;;;;;5070250;28;20028;-63
2023/05/02 04:01:31;;;;;;;7.07;2.50;;;13.70;68.10;;;;;;5069449;28;20362;-63
2023/05/02 04:03:59;;;;;;;8.60;2.28;;;13.70;68.00;;;;;;5071268;28;20091;-63
2023/05/02 04:06:27;;;;;;;6.93;2.00;;;13.70;68.00;;;;;;5069792;28;20033;-63
2023/05/02 04:08:58;;;;;;;8.77;2.30;;;13.70;67.80;;;;;;5063802;28;20032;-63
2023/05/02 04:11:26;;;;;;;8.80;1.83;;;13.70;67.80;;;;;;5055893;28;20472;-63
2023/05/02 04:13:53;;;;;;;7.65;2.10;;;13.70;67.70;;;;;;5071601;28;20368;-63
2023/05/02 04:16:19;;;;;;;7.80;2.08;;;13.70;67.60;;;;;;5070216;28;20112;-63
2023/05/02 04:18:45;;;;;;;7.15;1.88;;;13.70;67.50;;;;;;5069316;28;20525;-63
2023/05/02 04:21:11;;;;;;;9.27;2.70;;;13.70;67.40;;;;;;5069775;28;20029;-63
2023/05/02 04:23:38;;;;;;;8.60;2.13;;;13.60;67.40;;;;;;5065640;28;20028;-63
2023/05/02 04:26:05;;;;;;;8.98;2.00;;;13.60;67.40;;;;;;5067939;28;20107;-63
2023/05/02 04:28:40;;;;;;;6.70;1.80;;;13.60;67.40;;;;;;5069255;28;20400;-63
2023/05/02 04:31:07;;;;;;;7.57;2.10;;;13.60;67.40;;;;;;5066970;28;20060;-63
2023/05/02 04:33:34;;;;;;;6.15;1.55;;;13.60;67.40;;;;;;5066580;28;20109;-63
2023/05/02 04:36:00;;;;;;;7.57;2.38;;;13.60;67.40;;;;;;5053934;28;20075;-63
2023/05/02 04:38:26;;;;;;;7.63;1.90;;;13.60;67.40;;;;;;5064153;28;20488;-63
2023/05/02 04:40:53;;;;;;;7.53;1.88;;;13.60;67.20;;;;;;5056892;28;20021;-63
2023/05/02 04:43:25;;;;;;;5.72;1.63;;;13.60;67.10;;;;;;5067186;28;20029;-63
2023/05/02 04:45:57;;;;;;;9.02;2.25;;;13.60;66.90;;;;;;5067052;28;20024;-63
2023/05/02 04:48:28;;;;;;;8.07;1.70;;;13.60;66.80;;;;;;5065019;28;20028;-63
2023/05/02 04:50:54;;;;;;;8.68;1.63;;;13.60;66.60;;;;;;5068087;28;20066;-63
2023/05/02 04:53:23;;;;;;;6.13;1.85;;;13.60;66.40;;;;;;5068974;28;20052;-63
2023/05/02 04:55:49;;;;;;;6.28;1.80;;;13.60;66.20;;;;;;5071213;28;20483;-63
2023/05/02 04:58:15;;;;;;;4.20;1.58;;;13.70;66.10;;;;;;5044482;28;20446;-63
2023/05/02 05:00:44;;;;;;;6.13;1.75;;;13.70;65.90;;;;;;5067035;28;20463;-63
2023/05/02 05:03:10;;;;;;;6.82;1.88;;;13.70;65.60;;;;;;5057399;28;20028;-63
2023/05/02 05:05:36;;;;;;;6.68;1.67;;;13.70;65.30;;;;;;5064077;28;20028;-63
2023/05/02 05:08:03;;;;;;;4.70;1.60;;;13.70;65.10;;;;;;5060774;28;20029;-63
2023/05/02 05:10:32;;;;;;;6.47;2.20;;;13.70;64.90;;;;;;5066546;28;20029;-63
2023/05/02 05:12:59;;;;;;;5.03;1.75;;;13.70;64.70;;;;;;5061116;28;20405;-64
2023/05/02 05:15:26;;;;;;;9.25;1.75;;;13.70;64.60;;;;;;5061533;28;20029;-64
2023/05/02 05:17:55;;;;;;;7.93;2.20;;;13.70;64.30;;;;;;5054254;28;20151;-63
2023/05/02 05:20:22;;;;;;;9.68;2.50;;;13.80;64.20;;;;;;5073522;28;20270;-62
2023/05/02 05:22:50;;;;;;;8.43;1.75;;;13.80;63.90;;;;;;5072965;28;20362;-63
2023/05/02 05:25:17;;;;;;;6.68;1.67;;;13.80;63.60;;;;;;5072866;28;20025;-63
2023/05/02 05:27:45;;;;;;;7.93;1.92;;;13.80;63.30;;;;;;5070525;28;20029;-63
2023/05/02 05:30:11;;;;;;;6.97;1.92;;;13.80;63.10;;;;;;5059993;28;20033;-63
2023/05/02 05:32:38;;;;;;;7.68;1.65;;;13.70;62.90;;;;;;5074362;28;20029;-63
2023/05/02 05:35:04;;;;;;;7.32;1.75;;;13.70;62.70;;;;;;5072533;28;20020;-63
2023/05/02 05:37:31;;;;;;;5.95;1.92;;;13.80;62.50;;;;;;5074065;28;20364;-63
2023/05/02 05:39:58;;;;;;;5.32;1.88;;;13.70;62.30;;;;;;5063168;28;20159;-64
2023/05/02 05:42:24;;;;;;;7.00;1.73;;;13.80;62.30;;;;;;5073596;28;20074;-63
2023/05/02 05:44:54;;;;;;;5.72;2.10;;;13.80;62.30;;;;;;5073996;28;20020;-63
2023/05/02 05:47:20;;;;;;;6.95;2.00;;;13.80;62.20;;;;;;5074568;28;20334;-63
2023/05/02 05:49:51;;;;;;;7.25;2.20;;;13.80;62.20;;;;;;5076023;28;20020;-63
2023/05/02 05:52:17;;;;;;;8.25;2.35;;;13.70;62.10;;;;;;5075091;28;20732;-63
2023/05/02 05:54:43;;;;;;;5.47;1.90;;;13.70;62.00;;;;;;5073634;28;20102;-63
2023/05/02 05:57:08;;;;;;;6.22;1.77;;;13.80;62.00;;;;;;5075841;28;20028;-63
2023/05/02 05:59:35;;;;;;;6.40;1.98;;;13.70;61.70;;;;;;5071888;28;20083;-63
2023/05/02 06:02:02;;;;;;;7.57;1.98;;;13.70;61.50;;;;;;5074057;28;20024;-63
2023/05/02 06:04:29;;;;;;;8.90;2.05;;;13.70;61.40;;;;;;5072992;28;20031;-63
2023/05/02 06:06:55;;;;;;;9.30;2.03;;;13.70;61.10;;;;;;5074764;28;20036;-63
2023/05/02 06:09:20;;;;;;;12.38;2.50;;;13.70;60.90;;;;;;5075394;28;20020;-63
2023/05/02 06:11:46;;;;;;;7.03;2.40;;;13.70;60.90;;;;;;5076438;28;20112;-63
2023/05/02 06:14:12;;;;;;;9.00;3.35;;;13.70;60.90;;;;;;5066318;28;20480;-63
2023/05/02 06:16:38;;;;;;;8.88;2.22;;;13.70;60.80;;;;;;5074215;28;20020;-62
2023/05/02 06:19:05;;;;;;;7.68;2.15;;;13.80;60.80;;;;;;5057369;28;20013;-61
2023/05/02 06:21:31;;;;;;;8.75;2.38;;;13.80;60.70;;;;;;5067715;28;20036;-62
2023/05/02 06:23:56;;;;;;;9.70;2.55;;;13.90;60.60;;;;;;5062510;28;20484;-62
2023/05/02 06:26:22;;;;;;;10.50;2.53;;;13.80;60.40;;;;;;5061528;28;20020;-62
2023/05/02 06:28:48;;;;;;;8.68;2.85;;;13.80;60.30;;;;;;5061875;28;20048;-63
2023/05/02 06:31:15;;;;;;;10.27;2.88;;;13.80;60.30;;;;;;5060344;28;20028;-63
2023/05/02 06:33:41;;;;;;;13.13;3.22;;;13.80;60.20;;;;;;5066304;28;20029;-63
2023/05/02 06:36:07;;;;;;;10.48;3.70;;;13.80;60.10;;;;;;5059641;28;20079;-63
2023/05/02 06:38:33;;;;;;;11.70;3.45;;;13.90;60.00;;;;;;5056508;28;20029;-64
2023/05/02 06:40:58;;;;;;;11.63;2.70;;;13.90;59.80;;;;;;5057277;28;20025;-63
2023/05/02 06:43:24;;;;;;;11.27;2.90;;;13.90;59.70;;;;;;5062392;28;20032;-62
2023/05/02 06:45:55;;;;;;;12.27;3.25;;;13.90;59.60;;;;;;5059618;28;20094;-63
2023/05/02 06:48:21;;;;;;;12.27;2.67;;;13.90;59.40;;;;;;5060642;28;20083;-63
2023/05/02 06:50:47;;;;;;;10.88;2.88;;;13.90;59.30;;;;;;5063304;28;20468;-64
2023/05/02 06:53:13;;;;;;;10.02;2.55;;;13.90;59.20;;;;;;5062459;28;20139;-64
2023/05/02 06:55:39;;;;;;;12.77;3.00;;;14.00;59.20;;;;;;5057733;28;20108;-64
2023/05/02 06:58:04;;;;;;;10.88;2.92;;;14.00;59.20;;;;;;5066131;28;20024;-63
2023/05/02 07:00:30;;;;;;;9.90;2.92;;;14.00;59.00;;;;;;5059083;28;20381;-62
2023/05/02 07:02:56;;;;;;;13.15;2.53;;;14.00;58.90;;;;;;5072995;28;20063;-62
2023/05/02 07:05:22;;;;;;;8.57;2.40;;;14.10;58.80;;;;;;5064312;28;20479;-61
2023/05/02 07:07:48;;;;;;;9.25;2.50;;;14.10;59.20;;;;;;5059166;28;20041;-62
2023/05/02 07:10:14;;;;;;;9.48;2.65;;;14.20;58.40;;;;;;5060700;28;20151;-65
2023/05/02 07:12:39;;;;;;;11.02;2.40;;;14.20;58.10;;;;;;5064382;28;20035;-63
2023/05/02 07:15:07;;;;;;;9.02;2.78;;;14.20;57.90;;;;;;5058790;28;20048;-63
2023/05/02 07:17:33;;;;;;;6.57;2.00;;;14.30;57.70;;;;;;5057164;28;20021;-63
2023/05/02 07:19:58;;;;;;;8.63;2.28;;;14.30;57.50;;;;;;5055994;28;20032;-63
2023/05/02 07:22:25;;;;;;;13.65;2.40;;;14.30;57.30;;;;;;5066005;28;20040;-66
2023/05/02 07:25:03;;;;;;;7.25;1.80;;;14.30;57.10;;;;;;5059997;28;20036;-63
2023/05/02 07:27:28;;;;;;;9.85;2.95;;;14.30;56.80;;;;;;5065153;28;20383;-63
2023/05/02 07:29:54;;;;;;;9.27;2.38;;;14.30;56.70;;;;;;5059447;28;20202;-63
2023/05/02 07:32:24;;;;;;;10.45;1.92;;;14.30;56.60;;;;;;5058071;28;20143;-63
2023/05/02 07:34:53;;;;;;;6.78;1.80;;;14.30;56.40;;;;;;5069990;28;20452;-63
2023/05/02 07:37:20;;;;;;;8.50;2.45;;;14.40;56.30;;;;;;5062395;28;20032;-63
2023/05/02 07:39:45;;;;;;;7.57;2.88;;;14.40;56.20;;;;;;5062535;28;20048;-64
2023/05/02 07:42:11;;;;;;;6.82;2.40;;;14.40;56.10;;;;;;5056603;28;20036;-63
2023/05/02 07:44:37;;;;;;;7.05;2.10;;;14.40;55.90;;;;;;5070087;28;20035;-63
2023/05/02 07:47:03;;;;;;;9.95;2.38;;;14.40;55.80;;;;;;5074693;28;20437;-63
2023/05/02 07:49:29;;;;;;;8.75;2.05;;;14.50;55.60;;;;;;5062570;28;20481;-63
2023/05/02 07:51:56;;;;;;;9.23;2.10;;;14.60;55.50;;;;;;5074772;28;20025;-63
2023/05/02 07:54:21;;;;;;;7.43;1.80;;;14.60;55.30;;;;;;5074207;28;20044;-63
2023/05/02 07:56:50;;;;;;;6.25;1.85;;;14.60;55.10;;;;;;5074898;28;20028;-63
2023/05/02 07:59:16;;;;;;;8.32;2.15;;;14.50;54.90;;;;;;5063698;28;20036;-63
2023/05/02 08:01:42;;;;;;;6.90;2.15;;;14.50;54.80;;;;;;5072491;28;20040;-63
2023/05/02 08:04:11;;;;;;;8.73;2.95;;;14.40;54.90;;;;;;5073605;28;20526;-63
2023/05/02 08:06:37;;;;;;;7.70;2.17;;;14.30;55.10;;;;;;5074286;28;20442;-63
2023/05/02 08:09:03;;;;;;;8.30;2.15;;;14.20;55.30;;;;;;5073261;28;20029;-63
2023/05/02 08:11:29;;;;;;;9.10;2.42;;;14.10;55.50;;;;;;5074372;28;20036;-63
2023/05/02 08:13:54;;;;;;;7.90;2.10;;;14.10;55.60;;;;;;5068333;28;20033;-63
2023/05/02 08:16:20;;;;;;;6.30;1.75;;;14.00;55.50;;;;;;5073391;28;20024;-63
2023/05/02 08:18:46;;;;;;;5.57;2.22;;;14.00;55.50;;;;;;5072437;28;20385;-63
2023/05/02 08:21:12;;;;;;;8.15;2.30;;;14.00;55.50;;;;;;5070705;28;20021;-63
2023/05/02 08:23:40;;;;;;;6.70;1.80;;;14.10;55.40;;;;;;5073282;28;20461;-63
2023/05/02 08:26:06;;;;;;;6.65;2.10;;;14.10;55.20;;;;;;5074295;28;20032;-63
2023/05/02 08:28:34;;;;;;;6.05;1.70;;;14.20;55.10;;;;;;5064394;28;20021;-63
2023/05/02 08:31:00;;;;;;;5.75;1.85;;;14.30;55.00;;;;;;5069515;28;20357;-63
2023/05/02 08:33:26;;;;;;;8.98;1.75;;;14.40;54.90;;;;;;5074109;28;20136;-63
2023/05/02 08:35:52;;;;;;;9.35;2.30;;;14.60;54.60;;;;;;5072200;28;20032;-63
2023/05/02 08:38:17;;;;;;;5.18;1.70;;;14.70;54.30;;;;;;5073788;28;20036;-63
2023/05/02 08:40:43;;;;;;;6.30;2.03;;;14.90;54.00;;;;;;5072171;28;20434;-63
2023/05/02 08:43:15;;;;;;;8.00;1.75;;;15.20;53.60;;;;;;5056374;28;20029;-63
2023/05/02 08:45:43;;;;;;;5.93;1.58;;;15.30;53.00;;;;;;5068993;28;20105;-63
2023/05/02 08:48:10;;;;;;;6.03;1.70;;;15.50;52.60;;;;;;5070591;28;20128;-63
2023/05/02 08:50:40;;;;;;;6.88;1.80;;;15.70;52.30;;;;;;5074103;28;20043;-63
2023/05/02 08:53:10;;;;;;;7.82;1.88;;;15.90;51.80;;;;;;5080551;28;20036;-64
2023/05/02 08:55:40;;;;;;;6.15;1.60;;;16.10;51.30;;;;;;5079406;28;20036;-63
2023/05/02 08:58:08;;;;;;;6.40;1.60;;;16.30;50.90;;;;;;5070162;28;20039;-63
2023/05/02 09:00:39;;;;;;;4.45;1.17;;;16.30;50.50;;;;;;5076088;28;20029;-63
2023/05/02 09:03:24;;;;;;;;;;;16.30;49.90;;;;;;5079754;28;20098;-63
2023/05/02 09:05:54;;;;;;;4.43;1.15;;;16.40;50.20;;;;;;5079501;28;19915;-63
2023/05/02 09:08:23;;;;;;;6.43;1.33;;;16.30;49.80;;;;;;5072629;28;20040;-63
2023/05/02 09:10:50;;;;;;;4.50;1.30;;;16.20;49.50;;;;;;5076400;28;20512;-63
2023/05/02 09:13:40;;;;;;;4.97;1.50;;;16.10;49.50;;;;;;5079135;28;20472;-63
2023/05/02 09:16:11;;;;;;;7.55;1.95;;;16.00;49.10;;;;;;5058702;28;20048;-63
2023/05/02 09:18:41;;;;;;;4.55;1.40;;;15.80;49.10;;;;;;5076822;28;20504;-63
2023/05/02 09:21:09;;;;;;;6.00;1.70;;;15.80;49.10;;;;;;5077992;28;20029;-64
2023/05/02 09:23:39;;;;;;;6.63;1.88;;;15.80;48.90;;;;;;5072622;28;20029;-63
2023/05/02 09:26:20;;;;;;;4.53;1.60;;;15.80;48.50;;;;;;5076115;28;20039;-63
2023/05/02 09:28:50;;;;;;;7.07;1.60;;;15.80;48.20;;;;;;5072658;28;20040;-64
2023/05/02 09:31:25;;;;;;;6.05;1.60;;;15.70;48.10;;;;;;5066252;28;20039;-63
2023/05/02 09:33:51;;;;;;;5.50;1.77;;;15.70;48.00;;;;;;5075273;28;20437;-63
2023/05/02 09:36:19;;;;;;;6.60;1.90;;;15.80;48.60;;;;;;5079884;28;20360;-63
2023/05/02 09:38:48;;;;;;;6.68;1.70;;;15.90;47.60;;;;;;5075101;28;20024;-63
2023/05/02 09:41:14;;;;;;;5.78;1.80;;;16.00;47.30;;;;;;5078049;28;20041;-63
2023/05/02 09:43:40;;;;;;;7.68;1.98;;;16.20;46.90;;;;;;5078181;28;20456;-63
2023/05/02 09:46:10;;;;;;;4.72;1.73;;;16.20;46.60;;;;;;5071142;28;20033;-63
2023/05/02 09:48:52;;;;;;;4.78;1.45;;;16.20;46.20;;;;;;5065574;28;20059;-63
2023/05/02 09:51:19;;;;;;;4.70;1.35;;;16.70;45.50;;;;;;5072886;28;20029;-63
2023/05/02 09:53:45;;;;;;;6.85;1.85;;;17.10;45.20;;;;;;5075708;28;20036;-63
2023/05/02 09:56:10;;;;;;;4.93;1.67;;;17.20;44.70;;;;;;5073345;28;20552;-63
2023/05/02 09:58:36;;;;;;;3.53;1.50;;;17.30;44.30;;;;;;5066931;28;20457;-64
2023/05/02 10:01:02;;;;;;;5.60;1.77;;;17.40;44.20;;;;;;5064310;28;20103;-63
2023/05/02 10:03:30;;;;;;;5.13;1.33;;;17.30;44.20;;;;;;5071010;28;20094;-63
2023/05/02 10:05:57;;;;;;;6.53;1.52;;;17.20;44.20;;;;;;5071345;28;20032;-63
2023/05/02 10:08:27;;;;;;;4.72;1.40;;;17.00;44.00;;;;;;5064106;28;20033;-64
2023/05/02 10:10:57;;;;;;;5.05;1.33;;;16.80;44.10;;;;;;5061750;28;20021;-63
2023/05/02 10:13:26;;;;;;;4.22;1.42;;;17.10;44.20;;;;;;5069922;28;20055;-64
2023/05/02 10:16:02;;;;;;;6.00;1.92;;;17.50;43.70;;;;;;5058548;28;20028;-63
2023/05/02 10:18:40;;;;;;;4.90;1.48;;;17.70;43.10;;;;;;5062480;28;20350;-63
2023/05/02 10:21:11;;;;;;;4.85;1.50;;;17.60;42.90;;;;;;5072480;28;20199;-64
2023/05/02 10:23:43;;;;;;;;;;;17.40;43.10;;;;;;5069890;28;20457;-65
2023/05/02 10:26:14;;;;;;;3.55;1.23;;;17.30;43.60;;;;;;5068496;28;20358;-65
2023/05/02 10:28:41;;;;;;;3.00;1.23;;;17.20;43.50;;;;;;5066133;28;20184;-64
2023/05/02 10:31:10;;;;;;;5.78;1.67;;;17.50;43.20;;;;;;5071019;28;20089;-64
2023/05/02 10:33:37;;;;;;;6.30;1.60;;;17.80;42.50;;;;;;5074916;28;20025;-64
2023/05/02 10:36:04;;;;;;;4.80;1.63;;;18.10;42.20;;;;;;5075481;28;20016;-64
2023/05/02 10:38:30;;;;;;;6.55;1.90;;;18.20;42.10;;;;;;5074984;28;20491;-61
2023/05/02 10:41:01;;;;;;;5.28;2.13;;;18.10;42.00;;;;;;5071199;28;20040;-62
2023/05/02 10:43:32;;;;;;;5.57;1.65;;;17.90;42.00;;;;;;5070677;28;20116;-62
2023/05/02 10:45:58;;;;;;;3.75;1.48;;;17.90;42.00;;;;;;5074815;28;20396;-64
2023/05/02 10:48:25;;;;;;;4.10;1.48;;;18.10;42.10;;;;;;5075643;28;20028;-62
2023/05/02 10:50:52;;;;;;;5.43;1.58;;;18.30;41.80;;;;;;5063407;28;20090;-62
2023/05/02 10:53:39;;;;;;;5.70;1.75;;;18.60;41.40;;;;;;5070185;28;20063;-61
2023/05/02 10:56:14;;;;;;;4.13;1.55;;;19.00;40.60;;;;;;5073006;28;20020;-62
2023/05/02 10:58:44;;;;;;;9.00;2.00;;;19.20;40.60;;;;;;5074298;28;20429;-62
2023/05/02 11:01:29;;;;;;;6.38;1.60;;;19.30;40.10;;;;;;5073559;28;20032;-62
2023/05/02 11:03:59;;;;;;;6.00;1.52;;;19.40;39.50;;;;;;5063661;28;20028;-63
2023/05/02 11:06:26;;;;;;;4.57;1.60;;;19.50;39.80;;;;;;5069822;28;20064;-64
2023/05/02 11:08:53;;;;;;;6.60;1.70;;;19.70;39.70;;;;;;5075199;28;20032;-65
2023/05/02 11:11:38;;;;;;;5.63;1.60;;;19.80;39.20;;;;;;5070999;28;20044;-64
2023/05/02 11:14:04;;;;;;;6.50;1.50;;;19.80;38.40;;;;;;5067726;28;20323;-64
2023/05/02 11:17:04;;;;;;;5.18;1.90;;;19.80;39.00;;;;;;5070662;28;20031;-64
2023/05/02 11:19:56;;;;;;;6.82;1.63;;;19.60;38.60;;;;;;5066065;28;20067;-65
2023/05/02 11:22:26;;;;;;;6.93;1.80;;;19.20;38.80;;;;;;5028451;28;20045;-64
2023/05/02 11:24:53;;;;;;;5.75;1.65;;;19.00;39.30;;;;;;5063478;28;20035;-64
2023/05/02 11:27:32;;;;;;;5.40;1.42;;;19.20;39.20;;;;;;5073430;28;20457;-64
2023/05/02 11:30:03;;;;;;;5.43;1.60;;;19.40;38.80;;;;;;5065160;28;20037;-64
2023/05/02 11:32:44;;;;;;;5.80;1.67;;;19.60;39.00;;;;;;5057019;28;20023;-64
2023/05/02 11:35:17;;;;;;;5.63;1.60;;;19.70;38.20;;;;;;5069931;28;20028;-64
2023/05/02 11:37:51;;;;;;;5.53;1.50;;;19.80;38.10;;;;;;5075120;28;20020;-64
2023/05/02 11:40:17;;;;;;;11.02;1.88;;;19.90;38.20;;;;;;5073775;28;20060;-65
2023/05/02 11:42:43;;;;;;;5.63;1.73;;;20.00;38.10;;;;;;5074608;28;20060;-65
2023/05/02 11:45:09;;;;;;;22.60;3.60;;;20.10;38.00;;;;;;5066195;28;20521;-64
2023/05/02 11:47:35;;;;;;;6.35;1.90;;;20.10;37.80;;;;;;5074675;28;20453;-64
2023/05/02 11:50:04;;;;;;;5.50;1.70;;;20.10;37.70;;;;;;5073649;28;20046;-64
2023/05/02 11:52:35;;;;;;;5.57;1.75;;;20.10;37.80;;;;;;5069437;28;20112;-63
2023/05/02 11:55:01;;;;;;;;;;;20.10;37.80;;;;;;5063576;28;20160;-64
2023/05/02 11:57:27;;;;;;;4.68;1.60;;;20.00;38.10;;;;;;5067127;28;19916;-64
2023/05/02 11:59:54;;;;;;;6.90;2.10;;;19.90;38.10;;;;;;5064001;28;20104;-64
2023/05/02 12:02:41;;;;;;;5.53;1.70;;;19.90;37.90;;;;;;5073464;28;20029;-64
2023/05/02 12:05:09;;;;;;;4.15;1.50;;;19.80;37.80;;;;;;5068972;28;20036;-64
2023/05/02 12:07:38;;;;;;;5.90;1.80;;;19.80;37.90;;;;;;5058117;28;20041;-64
2023/05/02 12:10:05;;;;;;;5.00;1.80;;;19.80;38.00;;;;;;5067723;28;20288;-65
2023/05/02 12:12:31;;;;;;;5.97;2.15;;;19.80;37.90;;;;;;5076204;28;20445;-64
2023/05/02 12:14:58;;;;;;;5.03;2.05;;;19.80;38.60;;;;;;5066782;28;20386;-64
2023/05/02 12:17:24;;;;;;;4.35;1.55;;;19.80;37.90;;;;;;5069306;28;20051;-64
2023/05/02 12:19:50;;;;;;;7.47;2.15;;;19.70;37.80;;;;;;5069243;28;20063;-64
2023/05/02 12:22:16;;;;;;;4.43;1.83;;;19.70;37.70;;;;;;5065544;28;20457;-64
2023/05/02 12:24:43;;;;;;;8.23;2.13;;;19.60;37.40;;;;;;5062005;28;20064;-61
2023/05/02 12:27:09;;;;;;;6.95;2.10;;;19.30;37.40;;;;;;5065727;28;20084;-61
2023/05/02 12:29:39;;;;;;;7.63;2.22;;;19.10;37.60;;;;;;5068801;28;20451;-61
2023/05/02 12:32:05;;;;;;;5.63;2.03;;;18.80;37.70;;;;;;5061638;28;20326;-61
2023/05/02 12:34:32;;;;;;;5.88;2.00;;;18.80;38.00;;;;;;5057290;28;20020;-60
2023/05/02 12:36:58;;;;;;;7.63;2.20;;;18.80;38.00;;;;;;5062417;28;20380;-61
2023/05/02 12:39:38;;;;;;;6.28;2.17;;;18.80;37.90;;;;;;5059277;28;20045;-63
2023/05/02 12:42:14;;;;;;;7.90;2.08;;;18.80;37.60;;;;;;5055029;28;20028;-63
2023/05/02 12:44:43;;;;;;;5.88;1.98;;;18.70;37.50;;;;;;5059035;28;20029;-64
2023/05/02 12:47:13;;;;;;;6.57;2.00;;;18.70;37.60;;;;;;5054380;28;20037;-60
2023/05/02 12:49:52;;;;;;;6.20;2.17;;;18.70;37.70;;;;;;5053740;28;20031;-61
2023/05/02 12:52:57;;;;;;;6.03;2.17;;;18.50;37.40;;;;;;5059040;28;20025;-63
2023/05/02 12:55:26;;;;;;;5.82;1.88;;;18.40;37.60;;;;;;5054372;28;20128;-63